createdAt,value
2018-12-14T00:08:17.529Z,0.00
2018-12-14T00:13:56.860Z,0.10
2018-12-14T00:16:27.739Z,0.10
2018-12-14T00:19:01.370Z,0.00
2018-12-14T00:24:24.356Z,0.00
2018-12-14T00:26:53.039Z,0.00
2018-12-14T00:32:19.296Z,0.00
2018-12-14T00:37:43.035Z,-0.10
2018-12-14T00:40:16.521Z,-0.10
2018-12-14T00:42:51.546Z,-0.10
2018-12-14T00:51:07.167Z,-0.10
2018-12-14T00:56:44.649Z,-0.10
2018-12-14T00:59:28.994Z,-0.10
2018-12-14T01:02:04.475Z,-0.10
2018-12-14T01:04:35.854Z,-0.10
2018-12-14T01:07:05.207Z,-0.10
2018-12-14T01:15:01.746Z,-0.10
2018-12-14T01:17:35.123Z,-0.10
2018-12-14T01:20:11.078Z,-0.10
2018-12-14T01:22:57.325Z,-0.10
2018-12-14T01:25:29.709Z,-0.10
2018-12-14T01:31:00.006Z,0.00
2018-12-14T01:33:30.951Z,0.00
2018-12-14T01:36:02.248Z,-0.10
2018-12-14T01:38:32.866Z,0.00
2018-12-14T01:41:00.327Z,0.00
2018-12-14T01:43:34.553Z,0.00
2018-12-14T01:46:05.200Z,0.00
2018-12-14T01:48:35.626Z,0.00
2018-12-14T01:51:06.702Z,0.00
2018-12-14T01:53:35.255Z,0.00
2018-12-14T01:56:05.734Z,0.00
2018-12-14T01:58:36.391Z,0.00
2018-12-14T02:01:07.081Z,0.00
2018-12-14T02:03:34.523Z,0.00
2018-12-14T02:06:10.643Z,0.00
2018-12-14T02:08:41.381Z,-0.10
2018-12-14T02:11:12.116Z,0.00
2018-12-14T02:13:42.679Z,0.00
2018-12-14T02:21:20.505Z,0.00
2018-12-14T02:23:54.272Z,0.00
2018-12-14T02:26:28.625Z,-0.10
2018-12-14T02:29:00.965Z,-0.10
2018-12-14T02:31:29.850Z,-0.10
2018-12-14T02:34:03.309Z,-0.10
2018-12-14T02:36:36.484Z,-0.10
2018-12-14T02:39:05.315Z,-0.10
2018-12-14T02:44:35.225Z,-0.10
2018-12-14T02:47:08.450Z,-0.10
2018-12-14T02:49:39.923Z,-0.10
2018-12-14T02:52:22.145Z,-0.10
2018-12-14T02:54:51.416Z,-0.10
2018-12-14T02:57:24.851Z,-0.10
2018-12-14T02:59:54.189Z,-0.10
2018-12-14T03:11:15.001Z,-0.10
2018-12-14T03:13:49.808Z,-0.10
2018-12-14T03:16:21.111Z,-0.10
2018-12-14T03:18:48.585Z,-0.10
2018-12-14T03:21:19.981Z,-0.10
2018-12-14T03:26:50.527Z,-0.10
2018-12-14T03:29:17.961Z,-0.10
2018-12-14T03:31:45.453Z,-0.10
2018-12-14T03:34:12.996Z,-0.10
2018-12-14T03:36:46.721Z,-0.10
2018-12-14T03:39:20.264Z,-0.10
2018-12-14T03:41:50.842Z,-0.10
2018-12-14T03:44:18.311Z,-0.10
2018-12-14T03:46:48.909Z,-0.10
2018-12-14T03:49:20.153Z,-0.10
2018-12-14T03:51:55.372Z,-0.10
2018-12-14T03:54:28.908Z,-0.10
2018-12-14T03:56:56.384Z,-0.10
2018-12-14T03:59:29.721Z,0.00
2018-12-14T04:02:03.298Z,-0.10
2018-12-14T04:04:34.103Z,-0.10
2018-12-14T04:07:03.086Z,-0.10
2018-12-14T04:09:30.513Z,-0.10
2018-12-14T04:12:00.906Z,0.00
2018-12-14T04:14:34.176Z,0.00
2018-12-14T04:17:05.085Z,0.00
2018-12-14T04:19:35.766Z,-0.10
2018-12-14T04:22:05.383Z,-0.10
2018-12-14T04:24:36.518Z,-0.10
2018-12-14T04:27:09.998Z,-0.10
2018-12-14T04:29:43.776Z,-0.10
2018-12-14T04:32:14.928Z,-0.10
2018-12-14T04:34:48.836Z,-0.10
2018-12-14T04:37:19.665Z,-0.10
2018-12-14T04:40:06.197Z,0.00
2018-12-14T04:42:39.676Z,0.00
2018-12-14T04:45:15.410Z,0.00
2018-12-14T04:47:49.147Z,0.00
2018-12-14T04:50:19.902Z,-0.10
2018-12-14T04:52:53.159Z,0.00
2018-12-14T04:55:26.659Z,-0.10
2018-12-14T04:57:57.653Z,0.00
2018-12-14T05:03:29.870Z,-0.10
2018-12-14T05:06:00.967Z,-0.10
2018-12-14T05:08:32.190Z,-0.10
2018-12-14T05:11:03.204Z,-0.10
2018-12-14T05:13:30.654Z,-0.10
2018-12-14T05:16:06.801Z,-0.10
2018-12-14T05:18:36.098Z,-0.10
2018-12-14T05:21:06.584Z,-0.10
2018-12-14T05:23:40.014Z,-0.10
2018-12-14T05:26:13.491Z,-0.10
2018-12-14T05:28:44.100Z,-0.10
2018-12-14T05:31:15.096Z,-0.10
2018-12-14T05:33:48.550Z,-0.10
2018-12-14T05:36:28.537Z,0.00
2018-12-14T05:39:01.893Z,0.00
2018-12-14T05:41:42.149Z,0.00
2018-12-14T05:44:11.209Z,0.00
2018-12-14T05:46:40.592Z,-0.10
2018-12-14T05:49:11.007Z,0.00
2018-12-14T05:51:54.972Z,0.00
2018-12-14T05:54:28.731Z,0.00
2018-12-14T05:56:59.167Z,0.00
2018-12-14T05:59:36.315Z,0.00
2018-12-14T06:02:07.034Z,0.00
2018-12-14T06:04:37.547Z,-0.10
2018-12-14T06:07:11.270Z,-0.10
2018-12-14T06:09:41.803Z,0.00
2018-12-14T06:12:19.925Z,0.00
2018-12-14T06:14:53.381Z,0.00
2018-12-14T06:17:30.501Z,0.00
2018-12-14T06:19:57.975Z,-0.10
2018-12-14T06:22:25.394Z,0.00
2018-12-14T06:24:56.506Z,0.00
2018-12-14T06:27:28.464Z,-0.10
2018-12-14T06:29:59.740Z,-0.10
2018-12-14T06:32:30.314Z,-0.10
2018-12-14T06:35:04.211Z,-0.10
2018-12-14T06:37:33.718Z,-0.10
2018-12-14T06:40:17.101Z,0.00
2018-12-14T06:42:54.559Z,-0.10
2018-12-14T06:45:23.594Z,-0.10
2018-12-14T06:47:56.991Z,-0.10
2018-12-14T06:50:32.686Z,-0.10
2018-12-14T06:53:03.504Z,0.00
2018-12-14T06:55:32.878Z,-0.10
2018-12-14T06:58:07.221Z,0.00
2018-12-14T07:00:48.384Z,0.00
2018-12-14T07:03:22.478Z,0.00
2018-12-14T07:05:51.640Z,0.00
2018-12-14T07:08:20.212Z,0.00
2018-12-14T07:11:04.108Z,0.80
2018-12-14T07:16:31.493Z,0.00
2018-12-14T07:18:58.962Z,0.00
2018-12-14T07:21:32.623Z,0.00
2018-12-14T07:24:00.160Z,-0.10
2018-12-14T07:26:33.602Z,0.00
2018-12-14T07:29:06.975Z,-0.10
2018-12-14T07:31:40.372Z,-0.10
2018-12-14T07:34:13.801Z,0.00
2018-12-14T07:36:51.147Z,0.00
2018-12-14T07:39:24.593Z,0.00
2018-12-14T07:41:58.318Z,0.00
2018-12-14T07:44:42.729Z,-0.10
2018-12-14T07:50:09.624Z,0.00
2018-12-14T07:52:57.176Z,0.00
2018-12-14T07:55:43.970Z,0.00
2018-12-14T07:58:31.071Z,0.00
2018-12-14T08:01:01.770Z,0.00
2018-12-14T08:03:33.012Z,0.00
2018-12-14T08:06:03.766Z,0.00
2018-12-14T08:08:37.097Z,0.00
2018-12-14T08:11:07.694Z,0.00
2018-12-14T08:13:40.998Z,0.10
2018-12-14T08:16:12.225Z,0.10
2018-12-14T08:18:43.127Z,0.10
2018-12-14T08:21:17.930Z,0.10
2018-12-14T08:23:46.689Z,0.00
2018-12-14T08:26:30.919Z,0.10
2018-12-14T08:29:01.964Z,0.10
2018-12-14T08:34:51.047Z,0.10
2018-12-14T08:37:35.188Z,0.10
2018-12-14T08:40:10.248Z,0.10
2018-12-14T08:45:44.533Z,0.10
2018-12-14T08:48:18.361Z,0.10
2018-12-14T08:50:51.825Z,0.10
2018-12-14T08:53:25.131Z,0.10
2018-12-14T08:55:55.754Z,0.20
2018-12-14T08:58:26.609Z,0.20
2018-12-14T09:01:00.228Z,0.20
2018-12-14T09:03:30.807Z,0.20
2018-12-14T09:06:02.079Z,0.20
2018-12-14T09:08:44.693Z,0.10
2018-12-14T09:11:12.147Z,0.20
2018-12-14T09:13:47.981Z,0.20
2018-12-14T09:19:21.693Z,0.30
2018-12-14T09:21:52.657Z,0.30
2018-12-14T09:24:23.382Z,0.20
2018-12-14T09:26:53.878Z,0.30
2018-12-14T09:29:27.343Z,0.20
2018-12-14T09:32:01.081Z,0.20
2018-12-14T09:34:48.227Z,0.20
2018-12-14T09:37:21.649Z,0.20
2018-12-14T09:39:55.601Z,0.20
2018-12-14T09:42:42.338Z,0.20
2018-12-14T09:45:15.482Z,0.30
2018-12-14T09:47:58.184Z,0.20
2018-12-14T09:50:29.145Z,0.30
2018-12-14T09:53:00.619Z,0.30
2018-12-14T09:55:35.233Z,0.30
2018-12-14T09:58:06.406Z,0.30
2018-12-14T10:00:41.640Z,0.40
2018-12-14T10:03:12.857Z,0.30
2018-12-14T10:20:11.951Z,0.40
2018-12-14T10:22:42.468Z,0.40
2018-12-14T10:25:13.437Z,0.40
2018-12-14T10:27:52.078Z,0.40
2018-12-14T10:30:21.547Z,0.40
2018-12-14T10:32:52.505Z,0.40
2018-12-14T10:38:16.687Z,0.40
2018-12-14T10:40:49.919Z,0.40
2018-12-14T10:43:20.978Z,0.40
2018-12-14T10:46:07.446Z,0.40
2018-12-14T10:48:38.256Z,0.30
2018-12-14T10:51:11.513Z,0.30
2018-12-14T10:53:40.569Z,0.40
2018-12-14T11:13:47.057Z,0.50
2018-12-14T11:16:17.495Z,0.50
2018-12-14T11:24:33.668Z,0.50
2018-12-14T11:27:07.330Z,0.50
2018-12-14T11:29:38.610Z,0.40
2018-12-14T11:32:06.088Z,0.50
2018-12-14T11:34:33.577Z,0.40
2018-12-14T11:37:01.094Z,0.40
2018-12-14T11:39:28.554Z,0.40
2018-12-14T11:41:56.054Z,0.40
2018-12-14T11:44:23.494Z,0.50
2018-12-14T11:46:58.300Z,0.40
2018-12-14T11:52:25.001Z,0.40
2018-12-14T11:57:48.609Z,0.50
2018-12-14T12:20:37.787Z,0.50
2018-12-14T12:23:06.955Z,0.40
2018-12-14T12:25:40.086Z,0.50
2018-12-14T12:31:17.489Z,0.40
2018-12-14T12:33:44.931Z,0.40
2018-12-14T12:36:20.891Z,0.40
2018-12-14T12:46:58.991Z,0.40
2018-12-14T12:55:13.338Z,0.50
2018-12-14T12:57:46.948Z,0.40
2018-12-14T13:00:20.476Z,0.30
2018-12-14T13:02:51.268Z,0.40
2018-12-14T13:05:24.499Z,0.40
2018-12-14T13:08:02.261Z,0.40
2018-12-14T13:19:16.435Z,0.40
2018-12-14T13:21:52.718Z,0.40
2018-12-14T13:24:30.354Z,0.50
2018-12-14T13:30:01.284Z,0.40
2018-12-14T13:32:45.607Z,0.50
2018-12-14T13:46:51.309Z,0.40
2018-12-14T13:49:31.548Z,0.30
2018-12-14T13:52:05.326Z,0.40
2018-12-14T13:57:29.261Z,0.30
2018-12-14T14:08:46.217Z,0.40
2018-12-14T14:14:26.375Z,0.30
2018-12-14T14:16:57.079Z,0.40
2018-12-14T14:28:10.501Z,0.30
2018-12-14T14:30:44.233Z,0.30
2018-12-14T14:33:13.256Z,0.30
2018-12-14T14:41:35.643Z,0.30
2018-12-14T14:44:03.252Z,0.30
2018-12-14T14:46:36.384Z,0.30
2018-12-14T14:59:38.295Z,0.20
2018-12-14T15:02:12.448Z,0.20
2018-12-14T15:10:31.665Z,0.10
2018-12-14T15:21:44.492Z,0.10
2018-12-14T15:24:33.425Z,0.10
2018-12-14T15:29:57.175Z,0.10
2018-12-14T15:35:22.936Z,0.10
2018-12-14T15:40:51.290Z,0.10
2018-12-14T15:46:15.200Z,0.00
2018-12-14T15:54:39.408Z,0.00
2018-12-14T16:00:02.325Z,0.00
2018-12-14T16:08:23.306Z,0.00
2018-12-14T16:16:40.273Z,0.00
2018-12-14T16:22:04.248Z,0.00
2018-12-14T16:30:21.052Z,0.00
2018-12-14T16:35:45.053Z,-0.10
2018-12-14T16:38:14.345Z,0.00
2018-12-14T16:40:52.290Z,0.00
2018-12-14T16:52:02.600Z,0.00
2018-12-14T16:57:29.138Z,-0.10
2018-12-14T17:00:00.155Z,-0.10
2018-12-14T17:10:01.865Z,-0.10
2018-12-14T17:12:33.076Z,-0.10
2018-12-14T17:15:07.997Z,-0.10
2018-12-14T17:23:27.464Z,-0.10
2018-12-14T17:28:54.187Z,-0.10
2018-12-14T17:33:51.404Z,-0.10
2018-12-14T17:42:11.832Z,-0.10
2018-12-14T17:53:21.548Z,-0.10
2018-12-14T17:58:48.838Z,-0.10
2018-12-14T18:01:22.117Z,-0.10
2018-12-14T18:06:50.960Z,-0.10
2018-12-14T18:09:24.942Z,-0.10
2018-12-14T18:11:58.465Z,-0.10
2018-12-14T18:26:01.240Z,-0.20
2018-12-14T18:28:39.279Z,-0.20
2018-12-14T18:34:03.343Z,-0.10
2018-12-14T18:42:19.082Z,-0.20
2018-12-14T18:45:03.158Z,-0.20
2018-12-14T18:50:36.878Z,-0.20
2018-12-14T19:02:15.250Z,-0.20
2018-12-14T19:04:50.536Z,-0.20
2018-12-14T19:07:19.241Z,-0.20
2018-12-14T19:09:59.608Z,-0.20
2018-12-14T19:15:27.129Z,-0.30
2018-12-14T19:17:57.686Z,-0.30
2018-12-14T19:20:28.521Z,-0.30
2018-12-14T19:23:02.117Z,-0.20
2018-12-14T19:25:32.741Z,-0.30
2018-12-14T19:28:06.834Z,-0.30
2018-12-14T19:30:38.196Z,-0.20
2018-12-14T19:33:07.504Z,-0.30
2018-12-14T19:35:38.125Z,-0.30
2018-12-14T19:38:16.636Z,-0.30
2018-12-14T19:40:57.228Z,-0.30
2018-12-14T19:43:41.576Z,-0.30
2018-12-14T19:46:12.836Z,-0.30
2018-12-14T19:48:56.725Z,-0.30
2018-12-14T19:51:30.778Z,-0.30
2018-12-14T19:54:01.581Z,-0.30
2018-12-14T19:56:30.346Z,-0.30
2018-12-14T19:59:03.622Z,-0.30
2018-12-14T20:01:34.269Z,-0.30
2018-12-14T20:04:07.437Z,-0.30
2018-12-14T20:06:38.502Z,-0.30
2018-12-14T20:09:11.961Z,-0.30
2018-12-14T20:11:42.720Z,-0.40
2018-12-14T20:14:24.197Z,-0.30
2018-12-14T20:16:57.586Z,-0.30
2018-12-14T20:19:31.114Z,-0.30
2018-12-14T20:22:08.718Z,-0.30
2018-12-14T20:24:41.272Z,-0.30
2018-12-14T20:27:11.209Z,-0.30
2018-12-14T20:29:41.941Z,-0.30
2018-12-14T20:32:15.433Z,-0.20
2018-12-14T20:34:56.269Z,-0.30
2018-12-14T20:37:29.080Z,-0.30
2018-12-14T20:39:57.819Z,-0.30
2018-12-14T20:42:32.097Z,-0.40
2018-12-14T20:45:00.986Z,-0.40
2018-12-14T20:47:34.341Z,-0.40
2018-12-14T20:50:08.000Z,-0.30
2018-12-14T20:52:41.658Z,-0.30
2018-12-14T20:55:28.392Z,-0.30
2018-12-14T20:58:03.901Z,-0.30
2018-12-14T21:00:34.361Z,-0.30
2018-12-14T21:03:19.154Z,-0.30
2018-12-14T21:05:54.949Z,-0.30
2018-12-14T21:08:28.550Z,-0.30
2018-12-14T21:11:02.196Z,-0.30
2018-12-14T21:13:36.320Z,-0.30
2018-12-14T21:16:10.366Z,-0.30
2018-12-14T21:18:47.557Z,-0.30
2018-12-14T21:21:18.606Z,-0.30
2018-12-14T21:23:51.942Z,-0.30
2018-12-14T21:26:27.157Z,-0.30
2018-12-14T21:29:00.939Z,-0.30
2018-12-14T21:34:28.322Z,-0.40
2018-12-14T21:37:05.679Z,-0.40
2018-12-14T21:39:43.487Z,-0.40
2018-12-14T21:42:18.354Z,-0.40
2018-12-14T21:44:52.240Z,-0.40
2018-12-14T21:47:21.290Z,-0.40
2018-12-14T21:49:51.711Z,-0.40
2018-12-14T21:52:21.051Z,-0.40
2018-12-14T21:55:02.509Z,-0.40
2018-12-14T21:57:32.930Z,-0.40
2018-12-14T22:00:09.145Z,-0.40
2018-12-14T22:02:40.415Z,-0.40
2018-12-14T22:05:26.831Z,-0.40
2018-12-14T22:08:02.222Z,-0.40
2018-12-14T22:10:33.481Z,-0.40
2018-12-14T22:13:03.937Z,-0.40
2018-12-14T22:15:38.236Z,-0.40
2018-12-14T22:18:20.952Z,-0.40
2018-12-14T22:20:54.302Z,-0.40
2018-12-14T22:23:27.535Z,-0.40
2018-12-14T22:25:58.654Z,-0.40
2018-12-14T22:31:27.271Z,-0.40
2018-12-14T22:34:04.666Z,-0.40
2018-12-14T22:36:35.525Z,-0.40
2018-12-14T22:39:06.767Z,-0.40
2018-12-14T22:41:37.316Z,-0.40
2018-12-14T22:44:10.565Z,-0.50
2018-12-14T22:46:45.731Z,-0.40
2018-12-14T22:49:23.747Z,-0.40
2018-12-14T22:51:54.601Z,-0.40
2018-12-14T22:54:23.126Z,-0.40
2018-12-14T22:56:54.340Z,-0.40
2018-12-14T22:59:25.425Z,-0.40
2018-12-14T23:02:02.934Z,-0.50
2018-12-14T23:04:33.898Z,-0.40
2018-12-14T23:07:16.550Z,-0.50
2018-12-14T23:09:47.858Z,-0.50
2018-12-14T23:12:21.070Z,-0.50
2018-12-14T23:17:54.407Z,-0.50
2018-12-14T23:20:25.275Z,-0.50
2018-12-14T23:22:59.922Z,-0.50
2018-12-14T23:25:35.665Z,-0.50
2018-12-14T23:28:06.755Z,-0.50
2018-12-14T23:30:37.427Z,-0.50
2018-12-14T23:33:12.837Z,-0.50
2018-12-14T23:36:04.127Z,-0.50
2018-12-14T23:38:34.612Z,-0.50
2018-12-14T23:41:09.932Z,-0.40
2018-12-14T23:46:47.055Z,-0.50
2018-12-14T23:49:20.620Z,-0.50
2018-12-14T23:57:47.481Z,-0.40
